Time;durP1;ratioP1;P1;durP2;ratioP2;P2;SDS_P1;SDS_P2;PMS_P1;PMS_P2;Temp;Humidity;BMP_temperature;BMP_pressure;BME280_temperature;BME280_humidity;BME280_pressure;Samples;Min_cycle;Max_cycle;Signal;HPM_P1;HPM_P2
2023/10/15 00:01:32;;;;;;;11.77;2.20;;;;;;;;;;4990797;28;20048;-82
2023/10/15 00:03:58;;;;;;;10.43;1.95;;;;;;;;;;5006142;28;20041;-84
2023/10/15 00:06:24;;;;;;;7.68;1.63;;;;;;;;;;4994316;28;20546;-84
2023/10/15 00:08:50;;;;;;;13.95;2.58;;;;;;;;;;4978333;28;20046;-84
2023/10/15 00:11:23;;;;;;;12.52;1.77;;;;;;;;;;4993233;28;20145;-84
2023/10/15 00:13:49;;;;;;;7.47;2.10;;;;;;;;;;4995761;28;20068;-84
2023/10/15 00:16:19;;;;;;;9.13;1.35;;;;;;;;;;4978951;28;20108;-84
2023/10/15 00:18:45;;;;;;;10.32;2.33;;;;;;;;;;4990364;28;20087;-83
2023/10/15 00:21:14;;;;;;;17.83;2.15;;;;;;;;;;4974384;28;20043;-84
2023/10/15 00:23:42;;;;;;;8.13;1.27;;;;;;;;;;4979433;28;20042;-84
2023/10/15 00:26:11;;;;;;;13.07;1.48;;;;;;;;;;4994811;28;20057;-83
2023/10/15 00:28:37;;;;;;;7.03;2.08;;;;;;;;;;4991821;28;20050;-84
2023/10/15 00:31:09;;;;;;;8.77;1.40;;;;;;;;;;4992225;28;20080;-84
2023/10/15 00:33:35;;;;;;;5.15;1.27;;;;;;;;;;4989581;28;20056;-85
2023/10/15 00:36:04;;;;;;;7.75;1.20;;;;;;;;;;4988971;28;20041;-85
2023/10/15 00:38:30;;;;;;;7.63;1.60;;;;;;;;;;5007620;28;20049;-84
2023/10/15 00:41:00;;;;;;;5.85;1.38;;;;;;;;;;4988932;28;20060;-85
2023/10/15 00:43:27;;;;;;;9.18;1.40;;;;;;;;;;5002602;28;20159;-85
2023/10/15 00:45:54;;;;;;;3.42;1.10;;;;;;;;;;5008100;28;20038;-85
2023/10/15 00:48:36;;;;;;;6.97;1.13;;;;;;;;;;4983184;28;20069;-85
2023/10/15 00:51:09;;;;;;;7.18;1.60;;;;;;;;;;4988801;28;20046;-85
2023/10/15 00:53:41;;;;;;;6.03;1.27;;;;;;;;;;5006691;28;20048;-85
2023/10/15 00:56:10;;;;;;;6.70;1.40;;;;;;;;;;5001901;28;20128;-85
2023/10/15 01:03:53;;;;;;;14.23;2.03;;;;;;;;;;4984580;28;20501;-78
2023/10/15 01:06:29;;;;;;;12.43;2.22;;;;;;;;;;5000810;28;20045;-77
2023/10/15 01:08:58;;;;;;;7.50;1.38;;;;;;;;;;4986263;28;20048;-78
2023/10/15 01:11:28;;;;;;;13.05;1.80;;;;;;;;;;5006220;28;20124;-78
2023/10/15 01:13:54;;;;;;;12.40;1.77;;;;;;;;;;4990359;28;20140;-78
2023/10/15 01:16:22;;;;;;;7.22;1.67;;;;;;;;;;4989995;28;20440;-77
2023/10/15 01:21:32;;;;;;;11.45;1.75;;;;;;;;;;5005320;28;20065;-78
2023/10/15 01:24:04;;;;;;;3.78;1.05;;;;;;;;;;4991338;28;20137;-79
2023/10/15 01:26:39;;;;;;;4.43;1.02;;;;;;;;;;5000919;28;20459;-78
2023/10/15 01:29:08;;;;;;;6.32;1.17;;;;;;;;;;4989569;28;20044;-78
2023/10/15 01:31:51;;;;;;;4.78;0.57;;;;;;;;;;4988208;28;20045;-78
2023/10/15 01:34:21;;;;;;;5.63;1.35;;;;;;;;;;4990695;28;20124;-79
2023/10/15 01:36:48;;;;;;;9.85;0.88;;;;;;;;;;4989482;28;20048;-80
2023/10/15 01:39:21;;;;;;;12.88;1.02;;;;;;;;;;4993532;28;20054;-79
2023/10/15 01:41:57;;;;;;;12.70;1.25;;;;;;;;;;4983451;28;20050;-82
2023/10/15 01:44:24;;;;;;;7.55;1.38;;;;;;;;;;4978962;28;20417;-83
2023/10/15 01:47:07;;;;;;;5.18;1.02;;;;;;;;;;4988945;28;20053;-83
2023/10/15 01:49:34;;;;;;;7.47;0.90;;;;;;;;;;5016524;28;20153;-85
2023/10/15 01:52:06;;;;;;;9.13;0.93;;;;;;;;;;4997348;28;20038;-86
2023/10/15 01:54:33;;;;;;;4.88;0.95;;;;;;;;;;4987290;28;20045;-84
2023/10/15 01:57:00;;;;;;;6.07;0.70;;;;;;;;;;4983158;28;20042;-85
2023/10/15 01:59:27;;;;;;;8.77;1.27;;;;;;;;;;5000338;28;20049;-86
2023/10/15 02:01:53;;;;;;;2.13;0.85;;;;;;;;;;4966680;28;20121;-84
2023/10/15 02:06:49;;;;;;;7.70;1.10;;;;;;;;;;5000516;28;20077;-84
2023/10/15 02:09:21;;;;;;;8.35;1.33;;;;;;;;;;4986521;28;20052;-85
2023/10/15 02:11:54;;;;;;;2.92;0.60;;;;;;;;;;4970808;28;20073;-85
2023/10/15 02:14:23;;;;;;;1.75;0.80;;;;;;;;;;4984081;28;20045;-82
2023/10/15 02:16:49;;;;;;;1.13;0.73;;;;;;;;;;4981726;28;20045;-83
2023/10/15 02:19:28;;;;;;;1.75;0.50;;;;;;;;;;4997530;28;20049;-82
2023/10/15 02:21:55;;;;;;;6.72;0.80;;;;;;;;;;4994956;28;20097;-81
2023/10/15 02:24:21;;;;;;;4.00;1.77;;;;;;;;;;4984056;28;20108;-81
2023/10/15 02:26:47;;;;;;;10.63;0.95;;;;;;;;;;4995766;28;20049;-78
2023/10/15 02:34:57;;;;;;;17.95;2.50;;;;;;;;;;4955954;28;20049;-81
2023/10/15 02:37:28;;;;;;;11.18;1.60;;;;;;;;;;4985458;28;20485;-81
2023/10/15 02:39:57;;;;;;;16.73;1.30;;;;;;;;;;4986725;28;20169;-80
2023/10/15 02:42:36;;;;;;;8.45;1.20;;;;;;;;;;4970184;28;20078;-81
2023/10/15 02:45:06;;;;;;;4.53;0.80;;;;;;;;;;4985277;28;20485;-81
2023/10/15 02:47:41;;;;;;;5.47;1.08;;;;;;;;;;4984238;28;20128;-82
2023/10/15 02:50:10;;;;;;;6.78;1.17;;;;;;;;;;4989085;28;20049;-81
2023/10/15 02:52:42;;;;;;;9.52;1.02;;;;;;;;;;4971531;28;20045;-81
2023/10/15 02:55:12;;;;;;;2.63;0.90;;;;;;;;;;5004398;28;20037;-85
2023/10/15 02:57:39;;;;;;;2.25;0.80;;;;;;;;;;5001121;28;20050;-85
2023/10/15 03:00:28;;;;;;;2.95;0.50;;;;;;;;;;4990400;28;20047;-84
2023/10/15 03:02:54;;;;;;;3.33;1.02;;;;;;;;;;5000104;28;21986;-85
2023/10/15 03:05:30;;;;;;;8.77;0.90;;;;;;;;;;4969580;28;20053;-85
2023/10/15 03:07:59;;;;;;;4.80;0.73;;;;;;;;;;4986654;28;20053;-85
2023/10/15 03:10:30;;;;;;;5.72;0.73;;;;;;;;;;4989775;28;20048;-84
2023/10/15 03:12:59;;;;;;;4.38;0.68;;;;;;;;;;4987263;28;20088;-84
2023/10/15 03:15:25;;;;;;;7.35;1.00;;;;;;;;;;5000921;28;20091;-84
2023/10/15 03:17:51;;;;;;;5.07;1.00;;;;;;;;;;5001064;28;20050;-84
2023/10/15 03:22:44;;;;;;;2.83;0.60;;;;;;;;;;5003926;28;20046;-85
2023/10/15 03:25:14;;;;;;;2.08;0.50;;;;;;;;;;5002521;28;20038;-84
2023/10/15 03:27:40;;;;;;;3.67;0.65;;;;;;;;;;4986854;28;20080;-83
2023/10/15 03:30:09;;;;;;;2.05;0.57;;;;;;;;;;4972979;28;20038;-84
2023/10/15 03:32:44;;;;;;;2.83;0.63;;;;;;;;;;4980685;28;20037;-83
2023/10/15 03:35:17;;;;;;;5.57;0.50;;;;;;;;;;5002271;28;20038;-85
2023/10/15 03:37:47;;;;;;;1.17;0.60;;;;;;;;;;4984173;28;20053;-84
2023/10/15 03:40:30;;;;;;;10.13;1.95;;;;;;;;;;4992492;28;20049;-85
2023/10/15 03:43:01;;;;;;;3.88;0.70;;;;;;;;;;4988100;28;20406;-85
2023/10/15 03:45:28;;;;;;;8.13;1.17;;;;;;;;;;4991955;28;20478;-85
2023/10/15 03:47:57;;;;;;;5.57;1.20;;;;;;;;;;5007240;28;20046;-86
2023/10/15 03:50:28;;;;;;;5.55;0.98;;;;;;;;;;4976148;28;20366;-85
2023/10/15 03:52:56;;;;;;;12.32;1.45;;;;;;;;;;4987080;28;20421;-86
2023/10/15 03:55:23;;;;;;;6.90;1.23;;;;;;;;;;4988528;28;20169;-84
2023/10/15 03:57:51;;;;;;;3.03;0.77;;;;;;;;;;4992007;28;20144;-84
2023/10/15 04:03:27;;;;;;;2.88;0.75;;;;;;;;;;4975629;28;20193;-81
2023/10/15 04:06:00;;;;;;;3.63;0.90;;;;;;;;;;4980367;28;20064;-80
2023/10/15 04:08:27;;;;;;;2.75;0.70;;;;;;;;;;4987676;28;20058;-81
2023/10/15 04:10:56;;;;;;;1.58;0.43;;;;;;;;;;5003937;28;20081;-81
2023/10/15 04:13:26;;;;;;;6.00;0.82;;;;;;;;;;4992489;28;20034;-81
2023/10/15 04:15:52;;;;;;;3.30;0.65;;;;;;;;;;4990172;28;20067;-82
2023/10/15 04:18:18;;;;;;;3.42;0.90;;;;;;;;;;5000911;28;20069;-81
2023/10/15 04:20:45;;;;;;;11.85;1.02;;;;;;;;;;4968934;28;20099;-82
2023/10/15 04:23:20;;;;;;;5.90;1.63;;;;;;;;;;4971231;28;20051;-82
2023/10/15 04:25:47;;;;;;;3.45;1.23;;;;;;;;;;5003885;28;20113;-82
2023/10/15 04:28:19;;;;;;;13.43;1.25;;;;;;;;;;4998298;28;20641;-82
2023/10/15 04:30:46;;;;;;;10.00;1.10;;;;;;;;;;4999494;28;20046;-83
2023/10/15 04:33:17;;;;;;;5.85;0.98;;;;;;;;;;4987165;28;20124;-83
2023/10/15 04:35:44;;;;;;;8.70;1.00;;;;;;;;;;5000384;28;20038;-84
2023/10/15 04:38:28;;;;;;;3.53;0.88;;;;;;;;;;4971502;28;20643;-82
2023/10/15 04:43:25;;;;;;;7.80;0.68;;;;;;;;;;4994554;28;20116;-83
2023/10/15 04:45:54;;;;;;;7.85;1.00;;;;;;;;;;4988728;28;20041;-85
2023/10/15 04:48:29;;;;;;;5.45;0.98;;;;;;;;;;4996891;28;20038;-84
2023/10/15 04:51:02;;;;;;;4.65;0.95;;;;;;;;;;4987074;28;20048;-85
2023/10/15 04:53:30;;;;;;;4.00;0.70;;;;;;;;;;4986757;28;20038;-85
2023/10/15 04:55:57;;;;;;;7.65;1.00;;;;;;;;;;4984457;28;20049;-84
2023/10/15 04:58:27;;;;;;;4.03;0.70;;;;;;;;;;5015118;28;20061;-85
2023/10/15 05:00:56;;;;;;;5.57;0.90;;;;;;;;;;4985352;28;20038;-85
2023/10/15 05:03:23;;;;;;;4.57;0.95;;;;;;;;;;4997536;28;20054;-85
2023/10/15 05:05:49;;;;;;;7.20;1.20;;;;;;;;;;4997292;28;20046;-84
2023/10/15 05:08:17;;;;;;;5.68;0.80;;;;;;;;;;4986096;28;20073;-85
2023/10/15 05:10:50;;;;;;;5.13;1.00;;;;;;;;;;4979390;28;20042;-85
2023/10/15 05:13:16;;;;;;;3.70;0.77;;;;;;;;;;5000497;28;20406;-86
2023/10/15 05:15:46;;;;;;;2.45;0.77;;;;;;;;;;5004121;28;20433;-85
2023/10/15 05:18:15;;;;;;;6.00;1.05;;;;;;;;;;5003539;28;20052;-85
2023/10/15 05:20:41;;;;;;;8.35;0.90;;;;;;;;;;4994705;28;20092;-86
2023/10/15 05:23:07;;;;;;;6.07;0.80;;;;;;;;;;4995946;28;20133;-86
2023/10/15 05:25:33;;;;;;;5.03;0.75;;;;;;;;;;4984044;28;20042;-85
2023/10/15 05:28:00;;;;;;;6.35;1.15;;;;;;;;;;5018186;28;20172;-85
2023/10/15 05:30:26;;;;;;;2.75;0.60;;;;;;;;;;4997098;28;20108;-86
2023/10/15 05:32:52;;;;;;;5.97;1.00;;;;;;;;;;5001200;28;20362;-86
2023/10/15 05:35:18;;;;;;;6.43;1.00;;;;;;;;;;4988828;28;20697;-85
2023/10/15 05:37:45;;;;;;;16.33;1.50;;;;;;;;;;4999522;28;20038;-86
2023/10/15 05:40:18;;;;;;;9.10;1.00;;;;;;;;;;4987038;28;20057;-86
2023/10/15 05:42:44;;;;;;;5.13;0.90;;;;;;;;;;4986094;28;20053;-85
2023/10/15 05:45:10;;;;;;;11.13;1.60;;;;;;;;;;4984555;28;20038;-85
2023/10/15 05:47:36;;;;;;;11.00;1.08;;;;;;;;;;4997886;28;20071;-86
2023/10/15 05:50:06;;;;;;;7.57;1.30;;;;;;;;;;4982664;28;20493;-86
2023/10/15 05:52:32;;;;;;;4.40;0.90;;;;;;;;;;4983306;28;20486;-85
2023/10/15 05:55:00;;;;;;;4.38;0.80;;;;;;;;;;4998961;28;20054;-86
2023/10/15 05:57:26;;;;;;;1.73;0.63;;;;;;;;;;4993060;28;20397;-88
2023/10/15 05:59:54;;;;;;;3.47;0.60;;;;;;;;;;4987624;28;20046;-86
2023/10/15 06:02:20;;;;;;;6.25;0.90;;;;;;;;;;4970592;28;20038;-87
2023/10/15 06:04:47;;;;;;;7.28;0.95;;;;;;;;;;5006701;28;20041;-88
2023/10/15 06:07:16;;;;;;;5.60;1.00;;;;;;;;;;4978032;28;20042;-87
2023/10/15 06:09:45;;;;;;;2.70;0.80;;;;;;;;;;5004792;28;20402;-87
2023/10/15 06:12:13;;;;;;;6.50;1.00;;;;;;;;;;4989079;28;20053;-87
2023/10/15 06:14:39;;;;;;;4.13;0.80;;;;;;;;;;4995584;28;20078;-87
2023/10/15 06:17:05;;;;;;;7.05;0.75;;;;;;;;;;4992313;28;20475;-87
2023/10/15 06:19:31;;;;;;;8.30;1.00;;;;;;;;;;4994405;28;20405;-86
2023/10/15 06:21:58;;;;;;;3.28;1.13;;;;;;;;;;4989900;28;20073;-84
2023/10/15 06:24:24;;;;;;;5.20;0.90;;;;;;;;;;4987653;28;20095;-83
2023/10/15 06:26:50;;;;;;;3.17;0.85;;;;;;;;;;4994686;28;20090;-85
2023/10/15 06:29:16;;;;;;;5.38;0.77;;;;;;;;;;4992423;28;20061;-84
2023/10/15 06:31:42;;;;;;;2.15;0.50;;;;;;;;;;4999213;28;20489;-84
2023/10/15 06:34:09;;;;;;;0.65;0.45;;;;;;;;;;4986692;28;20042;-84
2023/10/15 06:36:35;;;;;;;1.55;0.57;;;;;;;;;;5007100;28;20169;-84
2023/10/15 06:39:01;;;;;;;3.63;0.60;;;;;;;;;;4992616;28;20046;-84
2023/10/15 06:41:27;;;;;;;2.88;1.00;;;;;;;;;;4979002;28;20109;-85
2023/10/15 06:43:54;;;;;;;6.40;1.30;;;;;;;;;;4997871;28;20510;-85
2023/10/15 06:46:23;;;;;;;3.20;0.85;;;;;;;;;;5006058;28;20045;-84
2023/10/15 06:48:51;;;;;;;1.65;0.60;;;;;;;;;;4995044;28;20034;-85
2023/10/15 06:51:17;;;;;;;4.60;0.95;;;;;;;;;;5008576;28;20046;-85
2023/10/15 06:53:44;;;;;;;4.93;0.88;;;;;;;;;;4997207;28;20137;-85
2023/10/15 06:56:10;;;;;;;5.40;0.90;;;;;;;;;;5009259;28;20041;-85
2023/10/15 06:58:36;;;;;;;3.85;1.23;;;;;;;;;;5003460;28;20042;-86
2023/10/15 07:01:04;;;;;;;2.45;1.23;;;;;;;;;;5004062;28;20073;-85
2023/10/15 07:03:30;;;;;;;10.13;1.75;;;;;;;;;;5012934;28;20041;-85
2023/10/15 07:05:56;;;;;;;2.15;0.90;;;;;;;;;;4983081;28;20053;-86
2023/10/15 07:08:22;;;;;;;6.10;0.90;;;;;;;;;;5010004;28;20478;-86
2023/10/15 07:10:49;;;;;;;6.57;1.00;;;;;;;;;;4989294;28;20042;-87
2023/10/15 07:13:17;;;;;;;3.00;0.63;;;;;;;;;;4999812;28;20050;-86
2023/10/15 07:15:45;;;;;;;5.72;0.90;;;;;;;;;;5010283;28;20046;-86
2023/10/15 07:18:11;;;;;;;1.38;0.80;;;;;;;;;;4990909;28;20042;-86
2023/10/15 07:20:38;;;;;;;3.03;0.60;;;;;;;;;;4985266;28;20034;-87
2023/10/15 07:23:04;;;;;;;2.05;0.68;;;;;;;;;;5002349;28;20034;-84
2023/10/15 07:25:34;;;;;;;5.40;1.88;;;;;;;;;;4988139;28;20049;-86
2023/10/15 07:28:00;;;;;;;2.45;0.65;;;;;;;;;;4992418;28;20438;-86
2023/10/15 07:30:27;;;;;;;2.80;0.75;;;;;;;;;;4988140;28;20038;-87
2023/10/15 07:32:57;;;;;;;0.65;0.50;;;;;;;;;;5003440;28;20030;-87
2023/10/15 07:35:24;;;;;;;5.07;0.70;;;;;;;;;;4985022;28;20034;-88
2023/10/15 07:37:50;;;;;;;4.63;0.77;;;;;;;;;;4992175;28;20124;-88
2023/10/15 07:40:21;;;;;;;5.65;0.80;;;;;;;;;;4988816;28;20054;-86
2023/10/15 07:42:48;;;;;;;7.00;1.02;;;;;;;;;;5007954;28;20064;-87
2023/10/15 07:45:15;;;;;;;8.55;1.05;;;;;;;;;;4986908;28;20097;-87
2023/10/15 07:47:41;;;;;;;7.90;2.08;;;;;;;;;;4985194;28;20682;-87
2023/10/15 07:50:18;;;;;;;11.07;1.73;;;;;;;;;;5004966;28;20613;-86
2023/10/15 07:52:45;;;;;;;6.15;2.10;;;;;;;;;;5005806;28;20038;-87
2023/10/15 07:55:13;;;;;;;7.57;1.83;;;;;;;;;;5006471;28;20113;-86
2023/10/15 07:57:39;;;;;;;7.55;1.25;;;;;;;;;;5006339;28;20044;-86
2023/10/15 08:00:06;;;;;;;7.28;1.17;;;;;;;;;;4987444;28;20095;-86
2023/10/15 08:02:35;;;;;;;5.95;1.10;;;;;;;;;;5004353;28;20591;-86
2023/10/15 08:05:01;;;;;;;10.25;2.60;;;;;;;;;;4996727;28;20092;-87
2023/10/15 08:07:28;;;;;;;18.88;2.47;;;;;;;;;;4983654;28;20033;-78
2023/10/15 08:09:54;;;;;;;16.05;2.20;;;;;;;;;;4985861;28;20487;-78
2023/10/15 08:12:21;;;;;;;7.35;1.67;;;;;;;;;;4984630;28;20034;-78
2023/10/15 08:14:47;;;;;;;7.10;1.23;;;;;;;;;;4997650;28;20037;-80
2023/10/15 08:17:16;;;;;;;5.25;1.17;;;;;;;;;;5001253;28;20034;-79
2023/10/15 08:19:42;;;;;;;8.55;1.60;;;;;;;;;;5000131;28;20080;-82
2023/10/15 08:22:08;;;;;;;8.60;1.48;;;;;;;;;;4985793;28;20041;-81
2023/10/15 08:24:38;;;;;;;12.40;1.55;;;;;;;;;;4996228;28;20046;-80
2023/10/15 08:27:05;;;;;;;11.32;1.60;;;;;;;;;;4979867;28;20623;-79
2023/10/15 08:29:31;;;;;;;10.35;1.85;;;;;;;;;;4985926;28;20052;-81
2023/10/15 08:31:58;;;;;;;9.35;1.33;;;;;;;;;;4968994;28;20078;-82
2023/10/15 08:34:24;;;;;;;7.40;1.20;;;;;;;;;;5003886;28;20038;-81
2023/10/15 08:36:50;;;;;;;9.13;1.88;;;;;;;;;;4969281;28;20057;-84
2023/10/15 08:39:16;;;;;;;9.45;1.63;;;;;;;;;;4975477;28;20046;-82
2023/10/15 08:41:44;;;;;;;11.82;2.15;;;;;;;;;;5003861;28;20488;-82
2023/10/15 08:44:18;;;;;;;12.68;3.17;;;;;;;;;;5005251;28;20125;-83
2023/10/15 08:46:47;;;;;;;14.02;2.13;;;;;;;;;;4989987;28;20405;-84
2023/10/15 08:49:15;;;;;;;14.73;2.25;;;;;;;;;;5002437;28;20041;-85
2023/10/15 08:51:42;;;;;;;9.77;1.33;;;;;;;;;;4994409;28;20108;-85
2023/10/15 08:54:11;;;;;;;8.23;1.33;;;;;;;;;;5007040;28;20041;-84
2023/10/15 08:56:38;;;;;;;7.60;1.05;;;;;;;;;;5003362;28;20556;-83
2023/10/15 08:59:09;;;;;;;9.10;1.15;;;;;;;;;;5008792;28;20037;-84
2023/10/15 09:01:37;;;;;;;3.95;0.88;;;;;;;;;;5004873;28;20101;-85
2023/10/15 09:04:06;;;;;;;4.55;0.80;;;;;;;;;;5006176;28;20045;-85
2023/10/15 09:06:34;;;;;;;6.82;0.90;;;;;;;;;;5002900;28;20041;-85
2023/10/15 09:09:02;;;;;;;9.13;1.80;;;;;;;;;;4991393;28;20432;-84
2023/10/15 09:11:28;;;;;;;9.30;1.30;;;;;;;;;;4988966;28;20037;-86
2023/10/15 09:13:54;;;;;;;4.47;1.20;;;;;;;;;;4989288;28;20053;-86
2023/10/15 09:16:21;;;;;;;10.40;2.67;;;;;;;;;;4988464;28;20124;-86
2023/10/15 09:18:47;;;;;;;6.97;1.55;;;;;;;;;;5007382;28;20038;-86
2023/10/15 09:21:23;;;;;;;6.80;1.10;;;;;;;;;;4994970;28;20045;-85
2023/10/15 09:23:50;;;;;;;7.95;1.15;;;;;;;;;;4996129;28;20524;-85
2023/10/15 09:26:16;;;;;;;6.30;0.85;;;;;;;;;;4991814;28;20045;-85
2023/10/15 09:28:43;;;;;;;5.75;1.25;;;;;;;;;;5010698;28;20064;-87
2023/10/15 09:31:11;;;;;;;3.00;1.02;;;;;;;;;;5000241;28;20033;-86
2023/10/15 09:33:37;;;;;;;12.73;1.25;;;;;;;;;;5011177;28;20040;-85
2023/10/15 09:36:05;;;;;;;9.80;1.10;;;;;;;;;;4990813;28;20493;-85
2023/10/15 09:38:35;;;;;;;6.72;1.38;;;;;;;;;;5011606;28;20555;-85
2023/10/15 09:41:05;;;;;;;11.07;1.48;;;;;;;;;;4991309;28;20431;-86
2023/10/15 09:43:35;;;;;;;13.63;1.30;;;;;;;;;;4993688;28;20252;-85
2023/10/15 09:46:03;;;;;;;7.38;1.20;;;;;;;;;;5011870;28;20048;-86
2023/10/15 09:48:29;;;;;;;4.93;1.10;;;;;;;;;;5000860;28;20146;-87
2023/10/15 09:50:59;;;;;;;10.23;1.27;;;;;;;;;;4994797;28;20049;-86
2023/10/15 09:53:28;;;;;;;5.63;1.05;;;;;;;;;;5011824;28;20042;-87
2023/10/15 09:55:57;;;;;;;4.90;1.20;;;;;;;;;;4994546;28;20056;-86
2023/10/15 09:58:24;;;;;;;9.13;1.35;;;;;;;;;;4999172;28;20470;-87
2023/10/15 10:03:37;;;;;;;6.82;0.95;;;;;;;;;;5008919;28;20103;-84
2023/10/15 10:06:09;;;;;;;;;;;;;;;;;;5004305;28;20053;-88
2023/10/15 10:09:09;;;;;;;6.93;1.85;;;10.50;99.90;;;;;;5011391;28;19925;-87
2023/10/15 10:12:05;;;;;;;4.57;2.17;;;;;;;;;;5007903;28;20568;-88
2023/10/15 10:14:50;;;;;;;4.60;0.73;;;;;;;;;;4978524;28;20056;-85
2023/10/15 10:17:18;;;;;;;9.52;1.02;;;;;;;;;;4994452;28;20037;-88
2023/10/15 10:19:45;;;;;;;3.10;1.52;;;;;;;;;;4994522;28;20041;-89
2023/10/15 10:22:23;;;;;;;7.40;0.75;;;;;;;;;;5012786;28;20064;-89
2023/10/15 10:24:50;;;;;;;3.83;0.70;;;;;;;;;;5008591;28;20149;-89
2023/10/15 10:27:17;;;;;;;3.55;0.80;;;;;;;;;;5009735;28;20033;-88
2023/10/15 10:29:44;;;;;;;3.50;0.77;;;;;;;;;;4990592;28;20042;-88
2023/10/15 10:32:14;;;;;;;0.98;0.60;;;;;;;;;;4986918;28;20041;-87
2023/10/15 10:34:41;;;;;;;5.20;0.80;;;;;;;;;;4997160;28;20136;-87
2023/10/15 10:37:23;;;;;;;4.53;0.85;;;;;;;;;;4991969;28;20069;-85
2023/10/15 10:39:49;;;;;;;5.47;1.08;;;;;;;;;;4979818;28;20057;-87
2023/10/15 10:42:22;;;;;;;6.18;1.10;;;;;;;;;;4975890;28;20075;-87
2023/10/15 10:44:48;;;;;;;4.70;1.00;;;;;;;;;;5001736;28;20079;-87
2023/10/15 10:47:19;;;;;;;7.40;1.00;;;;;;;;;;5002770;28;20091;-87
2023/10/15 10:49:52;;;;;;;4.25;1.05;;;;;;;;;;5003920;28;20037;-87
2023/10/15 10:52:27;;;;;;;3.95;1.05;;;;;;;;;;5002216;28;20073;-88
2023/10/15 10:54:56;;;;;;;6.78;1.17;;;;;;;;;;4991602;28;20033;-87
2023/10/15 10:57:27;;;;;;;6.65;0.98;;;;;;;;;;5008472;28;20045;-86
2023/10/15 10:59:53;;;;;;;8.52;1.27;;;;;;;;;;4993798;28;20052;-88
2023/10/15 11:02:20;;;;;;;4.68;0.82;;;;;;;;;;4989101;28;20040;-88
2023/10/15 11:04:47;;;;;;;7.63;1.02;;;;;;;;;;4980841;28;20048;-88
2023/10/15 11:07:15;;;;;;;3.67;1.45;;;;;;;;;;4997200;28;20109;-90
2023/10/15 11:09:41;;;;;;;11.52;1.73;;;;;;;;;;4979400;28;20072;-90
2023/10/15 11:12:12;;;;;;;6.38;1.58;;;;;;;;;;4997240;28;20037;-88
2023/10/15 11:14:39;;;;;;;8.55;1.80;;;;;;;;;;5011029;28;20131;-88
2023/10/15 11:17:07;;;;;;;6.38;1.33;;;;;;;;;;5005870;28;20077;-88
2023/10/15 11:19:34;;;;;;;8.68;1.17;;;;;;;;;;5011897;28;20049;-88
2023/10/15 11:22:00;;;;;;;6.38;1.30;;;;;;;;;;4993904;28;20137;-88
2023/10/15 11:24:27;;;;;;;7.93;1.67;;;;;;;;;;5013431;28;20398;-90
2023/10/15 11:26:54;;;;;;;5.15;0.90;;;;;;;;;;5008011;28;21171;-90
2023/10/15 11:29:22;;;;;;;5.63;0.90;;;;;;;;;;5012860;28;20034;-91
2023/10/15 11:31:49;;;;;;;4.50;0.85;;;;;;;;;;5001674;28;20046;-91
2023/10/15 11:34:22;;;;;;;6.85;1.58;;;;;;;;;;4982947;28;20037;-91
2023/10/15 11:36:48;;;;;;;5.82;1.17;;;;;;;;;;5005567;28;20041;-89
2023/10/15 11:39:18;;;;;;;4.80;1.00;;;;;;;;;;4993491;28;20091;-89
2023/10/15 11:41:56;;;;;;;9.52;1.17;;;;;;;;;;4996626;28;20642;-88
2023/10/15 11:44:26;;;;;;;12.20;1.70;;;;;;;;;;4991870;28;20051;-90
2023/10/15 11:46:55;;;;;;;9.93;1.67;;;;;;;;;;4992992;28;20562;-88
2023/10/15 11:49:22;;;;;;;10.65;1.42;;;;;;;;;;4992069;28;20073;-88
2023/10/15 11:51:49;;;;;;;4.70;0.98;;;;;;;;;;4993543;28;20580;-88
2023/10/15 11:54:16;;;;;;;6.43;1.25;;;;;;;;;;4995392;28;20029;-88
2023/10/15 11:56:50;;;;;;;6.50;1.55;;;;;;;;;;5008314;28;20509;-89
2023/10/15 11:59:16;;;;;;;10.80;1.25;;;;;;;;;;5011101;28;20042;-88
2023/10/15 12:01:50;;;;;;;6.88;1.50;;;;;;;;;;5004830;28;20566;-88
2023/10/15 12:04:16;;;;;;;6.95;1.10;;;;;;;;;;4997758;28;20040;-88
2023/10/15 12:06:43;;;;;;;11.57;1.70;;;;;;;;;;4974900;28;20048;-87
2023/10/15 12:09:12;;;;;;;8.93;1.25;;;;;;;;;;4976195;28;21058;-88
2023/10/15 12:11:41;;;;;;;5.22;1.15;;;;;;;;;;4997871;28;20449;-87
2023/10/15 12:14:08;;;;;;;6.25;1.25;;;;;;;;;;4991057;28;20049;-87
2023/10/15 12:16:39;;;;;;;10.30;1.23;;;;;;;;;;5006381;28;20038;-87
2023/10/15 12:19:08;;;;;;;8.43;1.20;;;;;;;;;;5003263;28;20073;-91
2023/10/15 12:21:35;;;;;;;7.22;1.15;;;;;;;;;;5014558;28;20493;-90
2023/10/15 12:24:01;;;;;;;9.07;1.40;;;;;;;;;;4991107;28;20042;-90
2023/10/15 12:26:27;;;;;;;6.32;1.38;;;;;;;;;;4999365;28;20037;-89
2023/10/15 12:28:54;;;;;;;5.55;1.42;;;;;;;;;;4978965;28;20114;-89
2023/10/15 12:31:20;;;;;;;4.07;1.13;;;;;;;;;;5005672;28;20042;-89
2023/10/15 12:33:46;;;;;;;3.80;0.98;;;;;;;;;;4980838;28;20716;-88
2023/10/15 12:36:13;;;;;;;5.97;1.10;;;;;;;;;;5009398;28;20063;-88
2023/10/15 12:38:39;;;;;;;7.80;1.40;;;;;;;;;;4992998;28;20046;-89
2023/10/15 12:41:06;;;;;;;6.90;1.17;;;;;;;;;;4990824;28;20062;-88
2023/10/15 12:43:32;;;;;;;5.28;1.50;;;;;;;;;;5000003;28;20069;-90
2023/10/15 12:46:00;;;;;;;4.57;0.93;;;;;;;;;;5004037;28;20057;-91
2023/10/15 12:48:27;;;;;;;2.90;0.60;;;;;;;;;;4976131;28;20037;-88
2023/10/15 12:50:54;;;;;;;3.25;0.90;;;;;;;;;;4989018;28;20050;-89
2023/10/15 12:53:20;;;;;;;6.30;1.25;;;;;;;;;;4989672;28;20354;-88
2023/10/15 12:55:46;;;;;;;5.53;1.23;;;;;;;;;;5007328;28;20098;-88
2023/10/15 12:58:12;;;;;;;8.50;1.13;;;;;;;;;;4991306;28;20034;-88
2023/10/15 13:00:43;;;;;;;7.70;1.10;;;;;;;;;;4989490;28;20404;-88
2023/10/15 13:03:10;;;;;;;5.82;1.55;;;;;;;;;;4985360;28;20125;-88
2023/10/15 13:05:36;;;;;;;6.28;1.52;;;;;;;;;;4987179;28;20379;-88
2023/10/15 13:08:03;;;;;;;7.47;2.05;;;;;;;;;;5002008;28;20624;-88
2023/10/15 13:10:29;;;;;;;6.22;1.60;;;;;;;;;;4987061;28;20092;-88
2023/10/15 13:12:55;;;;;;;5.75;1.20;;;;;;;;;;4994438;28;20041;-87
2023/10/15 13:15:22;;;;;;;9.85;1.55;;;;;;;;;;4972527;28;20037;-88
2023/10/15 13:17:48;;;;;;;9.52;1.20;;;;;;;;;;4990483;28;20125;-85
2023/10/15 13:20:17;;;;;;;10.63;1.17;;;;;;;;;;4987245;28;20042;-89
2023/10/15 13:22:44;;;;;;;8.10;1.55;;;;;;;;;;4992321;28;20121;-89
2023/10/15 13:25:11;;;;;;;6.35;1.20;;;;;;;;;;5002125;28;20726;-83
2023/10/15 13:27:40;;;;;;;8.05;1.77;;;;;;;;;;5005464;28;20050;-86
2023/10/15 13:30:13;;;;;;;5.22;1.27;;;;;;;;;;4983859;28;20120;-83
2023/10/15 13:32:41;;;;;;;9.85;1.23;;;;;;;;;;4986191;28;20038;-79
2023/10/15 13:35:08;;;;;;;6.38;1.10;;;;;;;;;;4996467;28;20090;-83
2023/10/15 13:37:34;;;;;;;4.88;0.82;;;;;;;;;;4986000;28;20030;-84
2023/10/15 13:40:00;;;;;;;3.33;0.70;;;;;;;;;;4973161;28;20062;-83
2023/10/15 13:42:26;;;;;;;3.20;0.90;;;;;;;;;;4981807;28;20502;-82
2023/10/15 13:44:52;;;;;;;10.32;2.53;;;;;;;;;;4986989;28;20097;-83
2023/10/15 13:47:18;;;;;;;5.75;0.80;;;;;;;;;;4998697;28;20745;-85
2023/10/15 13:49:45;;;;;;;5.68;0.93;;;;;;;;;;5006787;28;20136;-82
2023/10/15 13:52:11;;;;;;;1.88;0.70;;;;;;;;;;5007954;28;20050;-82
2023/10/15 13:54:38;;;;;;;3.50;0.95;;;;;;;;;;4983758;28;20486;-83
2023/10/15 13:57:06;;;;;;;3.47;0.77;;;;;;;;;;4969052;28;20096;-82
2023/10/15 13:59:32;;;;;;;2.92;0.65;;;;;;;;;;4972404;28;20042;-83
2023/10/15 14:01:58;;;;;;;10.00;1.00;;;;;;;;;;4987364;28;20046;-81
2023/10/15 14:04:24;;;;;;;7.60;1.20;;;;;;;;;;4982784;28;20092;-83
2023/10/15 14:06:50;;;;;;;4.97;1.10;;;;;;;;;;4973719;28;20046;-81
2023/10/15 14:09:16;;;;;;;4.68;0.85;;;;;;;;;;5002259;28;20129;-79
2023/10/15 14:11:43;;;;;;;7.65;1.00;;;;;;;;;;4967622;28;20157;-79
2023/10/15 14:14:10;;;;;;;4.15;1.02;;;;;;;;;;4967213;28;20046;-79
2023/10/15 14:16:36;;;;;;;6.10;1.00;;;;;;;;;;4998375;28;20096;-79
2023/10/15 14:19:04;;;;;;;4.45;0.90;;;;;;;;;;4971472;28;20034;-81
2023/10/15 14:21:30;;;;;;;5.35;1.00;;;;;;;;;;4964587;28;20038;-80
2023/10/15 14:23:56;;;;;;;6.35;1.15;;;;;;;;;;4969174;28;20104;-79
2023/10/15 14:26:23;;;;;;;14.15;1.40;;;;;;;;;;4989011;28;20081;-79
2023/10/15 14:28:50;;;;;;;8.73;1.35;;;;;;;;;;4973501;28;20054;-80
2023/10/15 14:31:16;;;;;;;6.95;1.55;;;;;;;;;;5008141;28;20144;-80
2023/10/15 14:33:43;;;;;;;10.85;1.70;;;;;;;;;;4992135;28;20084;-80
2023/10/15 14:36:09;;;;;;;9.02;1.92;;;;;;;;;;4999078;28;20759;-80
2023/10/15 14:38:35;;;;;;;9.30;2.00;;;;;;;;;;4990315;28;20042;-85
2023/10/15 14:41:01;;;;;;;4.75;1.15;;;;;;;;;;5000832;28;20085;-84
2023/10/15 14:43:27;;;;;;;6.90;1.85;;;;;;;;;;4992703;28;20046;-86
2023/10/15 14:45:53;;;;;;;11.05;1.90;;;;;;;;;;4992825;28;20037;-85
2023/10/15 14:48:20;;;;;;;6.57;1.48;;;;;;;;;;4982658;28;20045;-87
2023/10/15 14:50:46;;;;;;;7.10;1.15;;;;;;;;;;4994424;28;20791;-83
2023/10/15 14:53:16;;;;;;;8.57;1.73;;;;;;;;;;4996073;28;20045;-87
2023/10/15 14:55:44;;;;;;;16.25;2.40;;;;;;;;;;4991226;28;20042;-84
2023/10/15 14:58:10;;;;;;;5.85;1.23;;;;;;;;;;5009738;28;22032;-84
2023/10/15 15:00:36;;;;;;;12.32;1.38;;;;;;;;;;5010362;28;20036;-86
2023/10/15 15:03:03;;;;;;;11.18;1.73;;;;;;;;;;5006487;28;20052;-86
2023/10/15 15:05:29;;;;;;;10.15;2.03;;;;;;;;;;4995805;28;20064;-86
2023/10/15 15:07:55;;;;;;;10.32;1.73;;;;;;;;;;4980849;28;20139;-83
2023/10/15 15:10:21;;;;;;;6.32;1.85;;;;;;;;;;4979247;28;20046;-88
2023/10/15 15:12:47;;;;;;;11.52;1.58;;;;;;;;;;5008432;28;20045;-87
2023/10/15 15:15:16;;;;;;;4.38;0.90;;;;;;;;;;4998030;28;20519;-89